Wetterstation Vordersexau
Wetterdaten: Woche 03.10.11 - 09.10.11 (KW40)
Datum Zeit Temp. A. Feuchte A. Luftdruck Regen Wind Richtung Taupunkt Windchill Windben
03.10.2011 00:00 12,9 C 84 % 1022,2 hPa 0,0 l/m 0,0 km/h NO 10,3 C 12,9 C 0,0 km/h
03.10.2011 01:00 12,4 C 84 % 1022,1 hPa 0,0 l/m 0,0 km/h NO 9,8 C 12,4 C 0,0 km/h
03.10.2011 02:00 12,1 C 84 % 1021,8 hPa 0,0 l/m 0,0 km/h NO 9,5 C 12,1 C 0,0 km/h
03.10.2011 03:00 11,8 C 83 % 1021,5 hPa 0,0 l/m 0,0 km/h O-NO 9,0 C 11,8 C 0,0 km/h
03.10.2011 04:00 11,1 C 83 % 1021,4 hPa 0,0 l/m 0,0 km/h O-NO 8,3 C 11,1 C 0,0 km/h
03.10.2011 05:00 11,0 C 83 % 1021,4 hPa 0,0 l/m 0,0 km/h O-NO 8,2 C 11,0 C 0,0 km/h
03.10.2011 06:00 10,9 C 82 % 1021,3 hPa 0,0 l/m 0,0 km/h O-NO 7,9 C 10,9 C 0,0 km/h
03.10.2011 07:00 10,7 C 82 % 1021,7 hPa 0,0 l/m 0,0 km/h O-NO 7,8 C 10,7 C 0,0 km/h
03.10.2011 08:00 11,3 C 80 % 1022,0 hPa 0,0 l/m 0,0 km/h O-NO 8,0 C 11,3 C 0,0 km/h
03.10.2011 09:00 15,4 C 79 % 1022,4 hPa 0,0 l/m 0,0 km/h N-NO 11,8 C 15,4 C 0,0 km/h
03.10.2011 10:00 22,9 C 67 % 1022,5 hPa 0,0 l/m 0,0 km/h S-SW 16,4 C 22,9 C 0,0 km/h
03.10.2011 11:00 26,7 C 56 % 1022,8 hPa 0,0 l/m 0,0 km/h W 17,2 C 26,7 C 0,0 km/h
03.10.2011 12:00 27,9 C 50 % 1022,4 hPa 0,0 l/m 0,0 km/h W-NW 16,5 C 27,9 C 0,0 km/h
03.10.2011 13:00 28,3 C 48 % 1021,9 hPa 0,0 l/m 3,2 km/h S 16,2 C 28,3 C 1,8 km/h
03.10.2011 14:00 27,9 C 48 % 1021,3 hPa 0,0 l/m 7,1 km/h S-SW 15,9 C 27,8 C 4,0 km/h
03.10.2011 15:00 30,3 C 42 % 1020,8 hPa 0,0 l/m 0,0 km/h W-NW 15,9 C 30,3 C 0,0 km/h
03.10.2011 16:00 32,2 C 36 % 1020,5 hPa 0,0 l/m 4,5 km/h SW 15,2 C 32,2 C 2,5 km/h
03.10.2011 17:00 30,9 C 38 % 1020,4 hPa 0,0 l/m 0,0 km/h NO 14,9 C 30,9 C 0,0 km/h
03.10.2011 18:00 28,5 C 41 % 1020,5 hPa 0,0 l/m 0,0 km/h SO 13,9 C 28,5 C 0,0 km/h
03.10.2011 19:00 18,7 C 66 % 1020,9 hPa 0,0 l/m 0,0 km/h SO 12,2 C 18,7 C 0,0 km/h
03.10.2011 20:00 16,3 C 77 % 1021,6 hPa 0,0 l/m 6,5 km/h SO 12,3 C 16,3 C 3,6 km/h
03.10.2011 21:00 14,9 C 80 % 1021,8 hPa 0,0 l/m 0,0 km/h SO 11,5 C 14,9 C 0,0 km/h
03.10.2011 22:00 13,9 C 82 % 1021,8 hPa 0,0 l/m 0,0 km/h SO 10,9 C 13,9 C 0,0 km/h
03.10.2011 23:00 13,3 C 83 % 1021,7 hPa 0,0 l/m 0,0 km/h SO 10,5 C 13,3 C 0,0 km/h
04.10.2011 00:00 12,5 C 84 % 1021,7 hPa 0,0 l/m 0,0 km/h NO 9,9 C 12,5 C 0,0 km/h
04.10.2011 01:00 12,2 C 84 % 1021,9 hPa 0,0 l/m 0,0 km/h SO 9,6 C 12,2 C 0,0 km/h
04.10.2011 02:00 11,6 C 84 % 1022,2 hPa 0,0 l/m 0,0 km/h SO 9,0 C 11,6 C 0,0 km/h
04.10.2011 03:00 11,0 C 84 % 1022,1 hPa 0,0 l/m 0,0 km/h NO 8,4 C 11,0 C 0,0 km/h
04.10.2011 04:00 11,0 C 83 % 1022,0 hPa 0,0 l/m 0,0 km/h O-NO 8,2 C 11,0 C 0,0 km/h
04.10.2011 05:00 10,7 C 83 % 1022,0 hPa 0,0 l/m 0,0 km/h O-SO 7,9 C 10,7 C 0,0 km/h
04.10.2011 06:00 10,2 C 83 % 1022,1 hPa 0,0 l/m 0,0 km/h NO 7,4 C 10,2 C 0,0 km/h
04.10.2011 07:00 10,3 C 82 % 1022,1 hPa 0,0 l/m 0,0 km/h NO 7,4 C 10,3 C 0,0 km/h
04.10.2011 08:00 11,3 C 80 % 1022,4 hPa 0,0 l/m 0,0 km/h S-SO 8,0 C 11,3 C 0,0 km/h
04.10.2011 09:00 15,1 C 83 % 1022,4 hPa 0,0 l/m 6,5 km/h S-SO 12,2 C 15,1 C 3,6 km/h
04.10.2011 10:00 23,9 C 64 % 1022,4 hPa 0,0 l/m 0,0 km/h W 16,7 C 23,9 C 0,0 km/h
04.10.2011 11:00 27,3 C 49 % 1022,1 hPa 0,0 l/m 0,0 km/h W-SW 15,6 C 27,3 C 0,0 km/h
04.10.2011 12:00 27,6 C 47 % 1021,6 hPa 0,0 l/m 14,3 km/h W 15,3 C 26,5 C 7,9 km/h
04.10.2011 13:00 27,2 C 40 % 1021,1 hPa 0,0 l/m 19,4 km/h W-SW 12,4 C 25,6 C 10,8 km/h
04.10.2011 14:00 27,4 C 40 % 1020,9 hPa 0,0 l/m 24,0 km/h W 12,6 C 25,5 C 13,3 km/h
04.10.2011 15:00 28,9 C 37 % 1020,5 hPa 0,0 l/m 8,4 km/h W 12,7 C 28,6 C 4,7 km/h
04.10.2011 16:00 30,2 C 33 % 1020,2 hPa 0,0 l/m 5,8 km/h S 12,1 C 30,2 C 3,2 km/h
04.10.2011 17:00 29,1 C 34 % 1020,1 hPa 0,0 l/m 24,6 km/h W 11,6 C 27,7 C 13,7 km/h
04.10.2011 18:00 26,8 C 40 % 1020,0 hPa 0,0 l/m 2,6 km/h O-SO 12,1 C 26,8 C 1,4 km/h
04.10.2011 19:00 18,4 C 57 % 1021,0 hPa 0,0 l/m 0,0 km/h NO 9,7 C 18,4 C 0,0 km/h
04.10.2011 20:00 16,3 C 68 % 1021,8 hPa 0,0 l/m 0,0 km/h O-NO 10,4 C 16,3 C 0,0 km/h
04.10.2011 21:00 14,4 C 74 % 1022,6 hPa 0,0 l/m 0,0 km/h O 9,8 C 14,4 C 0,0 km/h
04.10.2011 22:00 14,5 C 78 % 1022,5 hPa 0,0 l/m 0,0 km/h SO 10,7 C 14,5 C 0,0 km/h
04.10.2011 23:00 14,8 C 79 % 1022,5 hPa 0,0 l/m 0,0 km/h S-SO 11,2 C 14,8 C 0,0 km/h
05.10.2011 00:00 14,2 C 80 % 1022,5 hPa 0,0 l/m 1,3 km/h O-SO 10,8 C 14,2 C 0,7 km/h
05.10.2011 01:00 14,1 C 81 % 1022,3 hPa 0,0 l/m 0,0 km/h O-SO 10,9 C 14,1 C 0,0 km/h
05.10.2011 02:00 14,5 C 81 % 1022,1 hPa 0,0 l/m 0,0 km/h O-NO 11,3 C 14,5 C 0,0 km/h
05.10.2011 03:00 13,3 C 82 % 1022,0 hPa 0,0 l/m 0,0 km/h O-SO 10,3 C 13,3 C 0,0 km/h
05.10.2011 04:00 13,2 C 84 % 1021,9 hPa 0,0 l/m 0,0 km/h SO 10,6 C 13,2 C 0,0 km/h
05.10.2011 05:00 13,6 C 84 % 1021,7 hPa 0,0 l/m 0,0 km/h SO 10,9 C 13,6 C 0,0 km/h
05.10.2011 06:00 13,5 C 84 % 1021,8 hPa 0,0 l/m 0,0 km/h O 10,8 C 13,5 C 0,0 km/h
05.10.2011 07:00 13,8 C 84 % 1021,9 hPa 0,0 l/m 0,0 km/h SO 11,1 C 13,8 C 0,0 km/h
05.10.2011 08:00 14,7 C 84 % 1022,2 hPa 0,0 l/m 0,0 km/h SO 12,0 C 14,7 C 0,0 km/h
05.10.2011 09:00 16,6 C 81 % 1022,4 hPa 0,0 l/m 0,0 km/h SO 13,3 C 16,6 C 0,0 km/h
05.10.2011 10:00 18,6 C 76 % 1022,9 hPa 0,0 l/m 0,0 km/h W 14,3 C 18,6 C 0,0 km/h
05.10.2011 11:00 20,3 C 69 % 1022,5 hPa 0,0 l/m 0,0 km/h S-SO 14,4 C 20,3 C 0,0 km/h
05.10.2011 12:00 22,2 C 61 % 1022,5 hPa 0,0 l/m 16,8 km/h W 14,3 C 19,6 C 9,4 km/h
05.10.2011 13:00 22,4 C 57 % 1022,2 hPa 0,0 l/m 7,1 km/h W-SW 13,5 C 22,2 C 4,0 km/h
05.10.2011 14:00 22,6 C 52 % 1021,5 hPa 0,0 l/m 10,4 km/h W 12,2 C 21,4 C 5,8 km/h
05.10.2011 15:00 23,1 C 50 % 1021,1 hPa 0,0 l/m 0,0 km/h W-SW 12,1 C 23,1 C 0,0 km/h
05.10.2011 16:00 22,2 C 52 % 1020,4 hPa 0,0 l/m 7,1 km/h W 11,9 C 22,0 C 4,0 km/h
05.10.2011 17:00 21,9 C 52 % 1020,1 hPa 0,0 l/m 0,0 km/h W 11,6 C 21,9 C 0,0 km/h
05.10.2011 18:00 19,9 C 58 % 1019,8 hPa 0,0 l/m 0,0 km/h N 11,4 C 19,9 C 0,0 km/h
05.10.2011 19:00 17,8 C 66 % 1020,3 hPa 0,0 l/m 0,0 km/h SO 11,4 C 17,8 C 0,0 km/h
05.10.2011 20:00 16,9 C 72 % 1020,6 hPa 0,0 l/m 0,0 km/h O-SO 11,8 C 16,9 C 0,0 km/h
05.10.2011 21:00 15,9 C 75 % 1020,7 hPa 0,0 l/m 0,0 km/h O 11,5 C 15,9 C 0,0 km/h
05.10.2011 22:00 15,5 C 78 % 1020,5 hPa 0,0 l/m 0,0 km/h O-NO 11,7 C 15,5 C 0,0 km/h
05.10.2011 23:00 13,5 C 81 % 1020,5 hPa 0,0 l/m 0,0 km/h O-NO 10,3 C 13,5 C 0,0 km/h
06.10.2011 00:00 12,6 C 83 % 1020,3 hPa 0,0 l/m 0,0 km/h N-NO 9,8 C 12,6 C 0,0 km/h
06.10.2011 01:00 12,4 C 83 % 1019,7 hPa 0,0 l/m 0,0 km/h NO 9,6 C 12,4 C 0,0 km/h
06.10.2011 02:00 11,4 C 84 % 1019,4 hPa 0,0 l/m 0,0 km/h O-NO 8,8 C 11,4 C 0,0 km/h
06.10.2011 03:00 11,5 C 84 % 1018,7 hPa 0,0 l/m 0,0 km/h O 8,9 C 11,5 C 0,0 km/h
06.10.2011 04:00 11,5 C 84 % 1018,2 hPa 0,0 l/m 0,0 km/h O-NO 8,9 C 11,5 C 0,0 km/h
06.10.2011 05:00 10,6 C 84 % 1017,4 hPa 0,0 l/m 0,0 km/h NO 8,0 C 10,6 C 0,0 km/h
06.10.2011 06:00 10,9 C 84 % 1017,4 hPa 0,0 l/m 0,0 km/h O-NO 8,3 C 10,9 C 0,0 km/h
06.10.2011 07:00 10,0 C 84 % 1016,8 hPa 0,0 l/m 0,0 km/h S 7,4 C 10,0 C 0,0 km/h
06.10.2011 08:00 12,2 C 83 % 1016,3 hPa 0,0 l/m 0,0 km/h W 9,4 C 12,2 C 0,0 km/h
06.10.2011 09:00 18,2 C 71 % 1015,8 hPa 0,0 l/m 0,0 km/h SW 12,9 C 18,2 C 0,0 km/h
06.10.2011 10:00 21,1 C 58 % 1015,9 hPa 0,0 l/m 18,8 km/h S-SW 12,5 C 17,8 C 10,4 km/h
06.10.2011 11:00 21,9 C 55 % 1015,5 hPa 0,0 l/m 37,6 km/h W-SW 12,4 C 16,7 C 20,9 km/h
06.10.2011 12:00 19,9 C 60 % 1014,9 hPa 0,0 l/m 31,8 km/h W-SW 11,9 C 14,4 C 17,6 km/h
06.10.2011 13:00 21,3 C 57 % 1013,9 hPa 0,0 l/m 19,4 km/h W-SW 12,4 C 18,0 C 10,8 km/h
06.10.2011 14:00 20,4 C 61 % 1013,3 hPa 0,0 l/m 21,4 km/h W 12,6 C 16,5 C 11,9 km/h
06.10.2011 15:00 21,4 C 56 % 1012,5 hPa 0,0 l/m 22,0 km/h W-SW 12,3 C 17,7 C 12,2 km/h
06.10.2011 16:00 21,6 C 55 % 1011,8 hPa 0,0 l/m 30,5 km/h W 12,2 C 16,9 C 16,9 km/h
06.10.2011 17:00 19,1 C 61 % 1011,2 hPa 0,0 l/m 23,3 km/h W 11,4 C 14,4 C 13,0 km/h
06.10.2011 18:00 19,5 C 61 % 1010,3 hPa 0,0 l/m 9,7 km/h W 11,8 C 18,2 C 5,4 km/h
06.10.2011 19:00 18,2 C 66 % 1010,0 hPa 0,0 l/m 14,3 km/h W-NW 11,7 C 15,3 C 7,9 km/h
06.10.2011 20:00 16,0 C 76 % 1010,0 hPa 0,0 l/m 1,9 km/h N-NO 11,8 C 16,0 C 1,1 km/h
06.10.2011 21:00 12,8 C 83 % 1011,4 hPa 5,7 l/m 0,0 km/h O-NO 10,0 C 12,8 C 0,0 km/h
06.10.2011 22:00 11,4 C 84 % 1011,4 hPa 2,5 l/m 0,0 km/h O-SO 8,8 C 11,4 C 0,0 km/h
06.10.2011 23:00 11,0 C 84 % 1012,0 hPa 1,1 l/m 0,0 km/h S 8,4 C 11,0 C 0,0 km/h
07.10.2011 00:00 11,0 C 83 % 1012,0 hPa 0,0 l/m 0,0 km/h S 8,2 C 11,0 C 0,0 km/h
07.10.2011 01:00 10,4 C 85 % 1012,8 hPa 0,0 l/m 0,0 km/h W-SW 8,0 C 10,4 C 0,0 km/h
07.10.2011 02:00 9,2 C 85 % 1012,8 hPa 0,0 l/m 1,3 km/h W 6,8 C 9,2 C 0,7 km/h
07.10.2011 03:00 8,6 C 85 % 1013,3 hPa 0,0 l/m 0,0 km/h SO 6,2 C 8,6 C 0,0 km/h
07.10.2011 04:00 7,6 C 85 % 1013,7 hPa 0,0 l/m 0,0 km/h N-NO 5,2 C 7,6 C 0,0 km/h
07.10.2011 05:00 8,4 C 83 % 1013,5 hPa 0,0 l/m 0,0 km/h W 5,7 C 8,4 C 0,0 km/h
07.10.2011 06:00 8,1 C 84 % 1013,1 hPa 0,4 l/m 0,0 km/h W 5,6 C 8,1 C 0,0 km/h
07.10.2011 07:00 8,1 C 85 % 1013,0 hPa 0,0 l/m 0,0 km/h W 5,7 C 8,1 C 0,0 km/h
07.10.2011 08:00 8,8 C 85 % 1013,0 hPa 0,0 l/m 7,8 km/h W 6,4 C 7,7 C 4,3 km/h
07.10.2011 09:00 9,6 C 84 % 1013,2 hPa 0,0 l/m 20,7 km/h W 7,0 C 2,5 C 11,5 km/h
07.10.2011 10:00 8,9 C 84 % 1014,2 hPa 1,1 l/m 16,2 km/h W-NW 6,3 C 3,3 C 9,0 km/h
07.10.2011 11:00 8,9 C 85 % 1014,7 hPa 0,4 l/m 9,7 km/h W-SW 6,5 C 6,6 C 5,4 km/h
07.10.2011 12:00 10,8 C 82 % 1013,9 hPa 0,0 l/m 23,3 km/h W-NW 7,9 C 3,4 C 13,0 km/h
07.10.2011 13:00 12,6 C 78 % 1014,0 hPa 0,0 l/m 14,3 km/h W-NW 8,9 C 8,6 C 7,9 km/h
07.10.2011 14:00 13,2 C 67 % 1014,4 hPa 0,0 l/m 9,7 km/h N-NW 7,2 C 11,3 C 5,4 km/h
07.10.2011 15:00 15,0 C 60 % 1014,4 hPa 0,0 l/m 11,0 km/h NW 7,3 C 12,7 C 6,1 km/h
07.10.2011 16:00 13,0 C 63 % 1014,8 hPa 0,0 l/m 20,7 km/h W-NW 6,1 C 7,0 C 11,5 km/h
07.10.2011 17:00 12,8 C 64 % 1014,8 hPa 0,0 l/m 11,7 km/h W-SW 6,2 C 9,9 C 6,5 km/h
07.10.2011 18:00 13,2 C 61 % 1015,0 hPa 0,4 l/m 0,0 km/h W 5,8 C 13,2 C 0,0 km/h
07.10.2011 19:00 8,2 C 75 % 1015,6 hPa 0,0 l/m 0,0 km/h NO 4,0 C 8,2 C 0,0 km/h
07.10.2011 20:00 7,4 C 82 % 1016,3 hPa 0,0 l/m 0,0 km/h W 4,5 C 7,4 C 0,0 km/h
07.10.2011 21:00 8,1 C 83 % 1016,5 hPa 0,0 l/m 0,0 km/h W-NW 5,4 C 8,1 C 0,0 km/h
07.10.2011 22:00 9,4 C 79 % 1017,0 hPa 0,0 l/m 8,4 km/h W-SW 5,9 C 7,9 C 4,7 km/h
07.10.2011 23:00 8,8 C 84 % 1017,1 hPa 0,0 l/m 3,2 km/h W-SW 6,2 C 8,8 C 1,8 km/h
08.10.2011 00:00 8,9 C 84 % 1016,6 hPa 0,0 l/m 0,0 km/h W-SW 6,3 C 8,9 C 0,0 km/h
08.10.2011 01:00 8,4 C 85 % 1016,9 hPa 1,1 l/m 8,4 km/h NO 6,0 C 6,9 C 4,7 km/h
08.10.2011 02:00 7,8 C 84 % 1016,4 hPa 1,1 l/m 0,0 km/h W 5,3 C 7,8 C 0,0 km/h
08.10.2011 03:00 8,3 C 84 % 1016,3 hPa 0,0 l/m 0,0 km/h W-SW 5,8 C 8,3 C 0,0 km/h
08.10.2011 04:00 8,3 C 83 % 1015,8 hPa 0,4 l/m 6,5 km/h W 5,6 C 8,2 C 3,6 km/h
08.10.2011 05:00 8,2 C 82 % 1016,3 hPa 1,1 l/m 14,3 km/h W-NW 5,3 C 3,3 C 7,9 km/h
08.10.2011 06:00 8,1 C 82 % 1016,3 hPa 0,4 l/m 0,0 km/h W 5,2 C 8,1 C 0,0 km/h
08.10.2011 07:00 8,3 C 82 % 1016,3 hPa 0,0 l/m 1,3 km/h W 5,4 C 8,3 C 0,7 km/h
08.10.2011 08:00 8,3 C 81 % 1016,3 hPa 0,4 l/m 0,0 km/h N 5,2 C 8,3 C 0,0 km/h
08.10.2011 09:00 6,6 C 85 % 1017,1 hPa 1,4 l/m 0,0 km/h SO 4,3 C 6,6 C 0,0 km/h
08.10.2011 10:00 6,8 C 85 % 1017,9 hPa 1,1 l/m 6,5 km/h SO 4,5 C 6,7 C 3,6 km/h
08.10.2011 11:00 7,6 C 85 % 1017,9 hPa 0,7 l/m 7,1 km/h SO 5,2 C 7,0 C 4,0 km/h
08.10.2011 12:00 8,1 C 85 % 1017,6 hPa 0,7 l/m 0,0 km/h S-SO 5,7 C 8,1 C 0,0 km/h
08.10.2011 13:00 10,2 C 79 % 1017,4 hPa 0,0 l/m 5,8 km/h S 6,7 C 10,2 C 3,2 km/h
08.10.2011 14:00 11,2 C 74 % 1016,7 hPa 0,0 l/m 0,0 km/h W 6,7 C 11,2 C 0,0 km/h
08.10.2011 15:00 10,6 C 72 % 1016,6 hPa 0,0 l/m 7,1 km/h S 5,8 C 10,1 C 4,0 km/h
08.10.2011 16:00 10,3 C 76 % 1016,2 hPa 0,0 l/m 5,2 km/h SW 6,3 C 10,3 C 2,9 km/h
08.10.2011 17:00 9,4 C 77 % 1015,9 hPa 0,0 l/m 17,5 km/h W 5,6 C 3,4 C 9,7 km/h
08.10.2011 18:00 8,9 C 81 % 1016,2 hPa 0,0 l/m 0,0 km/h N-NO 5,8 C 8,9 C 0,0 km/h
08.10.2011 19:00 8,4 C 83 % 1016,4 hPa 0,4 l/m 0,0 km/h O-NO 5,7 C 8,4 C 0,0 km/h
08.10.2011 20:00 8,0 C 85 % 1016,6 hPa 0,4 l/m 0,0 km/h W-SW 5,6 C 8,0 C 0,0 km/h
08.10.2011 21:00 8,3 C 85 % 1016,8 hPa 0,0 l/m 4,5 km/h SW 5,9 C 8,3 C 2,5 km/h
08.10.2011 22:00 8,3 C 84 % 1017,1 hPa 0,0 l/m 0,0 km/h W 5,8 C 8,3 C 0,0 km/h
08.10.2011 23:00 8,1 C 84 % 1017,4 hPa 0,4 l/m 0,0 km/h W-SW 5,6 C 8,1 C 0,0 km/h
09.10.2011 00:00 8,1 C 83 % 1017,3 hPa 0,0 l/m 0,0 km/h S 5,4 C 8,1 C 0,0 km/h
09.10.2011 01:00 8,1 C 83 % 1017,5 hPa 0,4 l/m 0,0 km/h S 5,4 C 8,1 C 0,0 km/h
09.10.2011 02:00 7,9 C 83 % 1017,7 hPa 0,4 l/m 0,0 km/h S 5,2 C 7,9 C 0,0 km/h
09.10.2011 03:00 8,1 C 83 % 1018,0 hPa 0,0 l/m 0,0 km/h SO 5,4 C 8,1 C 0,0 km/h
09.10.2011 04:00 7,9 C 83 % 1017,9 hPa 0,4 l/m 0,0 km/h O-SO 5,2 C 7,9 C 0,0 km/h
09.10.2011 05:00 7,6 C 82 % 1018,3 hPa 0,0 l/m 0,0 km/h O-NO 4,7 C 7,6 C 0,0 km/h
09.10.2011 06:00 7,8 C 81 % 1018,5 hPa 0,0 l/m 0,0 km/h O-NO 4,7 C 7,8 C 0,0 km/h
09.10.2011 07:00 6,5 C 82 % 1019,3 hPa 0,0 l/m 0,0 km/h O-NO 3,7 C 6,5 C 0,0 km/h
09.10.2011 08:00 6,3 C 81 % 1019,9 hPa 0,0 l/m 0,0 km/h NO 3,3 C 6,3 C 0,0 km/h
09.10.2011 09:00 7,9 C 80 % 1021,1 hPa 0,0 l/m 0,0 km/h SO 4,7 C 7,9 C 0,0 km/h
09.10.2011 10:00 12,5 C 84 % 1021,7 hPa 0,0 l/m 0,0 km/h W 9,9 C 12,5 C 0,0 km/h
09.10.2011 11:00 18,8 C 60 % 1021,9 hPa 0,0 l/m 0,0 km/h W 10,9 C 18,8 C 0,0 km/h
09.10.2011 12:00 14,8 C 58 % 1022,2 hPa 0,0 l/m 0,0 km/h S-SO 6,6 C 14,8 C 0,0 km/h
09.10.2011 13:00 17,1 C 53 % 1021,9 hPa 0,0 l/m 0,0 km/h W-NW 7,4 C 17,1 C 0,0 km/h
09.10.2011 14:00 18,6 C 49 % 1021,1 hPa 0,0 l/m 0,0 km/h W 7,7 C 18,6 C 0,0 km/h
09.10.2011 15:00 19,9 C 43 % 1021,0 hPa 0,0 l/m 0,0 km/h W 6,9 C 19,9 C 0,0 km/h
09.10.2011 16:00 21,2 C 40 % 1020,5 hPa 0,0 l/m 0,0 km/h W-NW 7,1 C 21,2 C 0,0 km/h
09.10.2011 17:00 20,6 C 37 % 1020,6 hPa 0,0 l/m 0,0 km/h S-SO 5,4 C 20,6 C 0,0 km/h
09.10.2011 18:00 11,6 C 63 % 1020,7 hPa 0,0 l/m 0,0 km/h SO 4,8 C 11,6 C 0,0 km/h
09.10.2011 19:00 10,4 C 73 % 1021,2 hPa 0,0 l/m 0,0 km/h S 5,8 C 10,4 C 0,0 km/h
09.10.2011 20:00 10,8 C 75 % 1021,4 hPa 0,0 l/m 2,6 km/h S 6,5 C 10,8 C 1,4 km/h
09.10.2011 21:00 10,5 C 82 % 1021,7 hPa 0,4 l/m 9,1 km/h S 7,6 C 8,7 C 5,0 km/h
09.10.2011 22:00 10,5 C 84 % 1021,4 hPa 0,4 l/m 0,0 km/h S 7,9 C 10,5 C 0,0 km/h
09.10.2011 23:00 10,5 C 84 % 1020,9 hPa 0,7 l/m 10,4 km/h S-SO 7,9 C 7,9 C 5,8 km/h
Min-Datum _ 09.10.11 04.10.11 06.10.11 - 03.10.11 - 09.10.11 07.10.11 03.10.11
_ Min-Zeit 08:30 16:30 19:30 - 00:30 - 08:30 09:30 00:30
Minimum _ 6,3 C 33 % 1010,0 hPa - 0,0 km/h - 3,3 C 2,5 C 0,0 km/h
Max-Datum _ 03.10.11 07.10.11 05.10.11 06.10.11 06.10.11 - 03.10.11 03.10.11 06.10.11
_ Max-Zeit 16:30 01:30 10:30 21:30 11:30 - 11:30 16:30 11:30
Maximum _ 32,2 C 85 % 1022,9 hPa 5,7 l/m 37,6 km/h
W-SW
- 17,2 C 32,2 C 20,9 km/h
W-SW
Durchschnitt _ 14,4 C 73 % 1018,7 hPa #23,1 l/m 4,0 km/h W 9,1 C 13,7 C 2,2 km/h
www.sexauwetter.de